Flight Track Log - Related Links

Times and Time Zones

All times are in EDT time to prevent confusion due to time zone crossing. See the CHH7870 flight status page for this flight to view local times or setup timezone preferences in your user account.

Time Position Orientation Groundspeed Altitude Reporting Facility
EDT Latitude Longitude Course Direction KTS MPH feet Rate Location/Type
Mon 12:49:00 AM 36.5387 109.5088 200° South  Level Estimated
Mon 12:50:00 AM 36.4404 109.4639 200° South  Level Estimated
Mon 12:51:00 AM 36.3421 109.4191 200° South  Level Estimated
Mon 12:52:00 AM 36.2438 109.3743 200° South  Level Estimated
Mon 12:53:00 AM 36.1455 109.3297 200° South  Level Estimated
Mon 12:54:00 AM 36.0471 109.2852 200° South  Level Estimated
Mon 12:55:00 AM 35.9487 109.2408 200° South  Level Estimated
Mon 12:56:00 AM 35.8503 109.1965 200° South  Level Estimated
Mon 12:57:00 AM 35.7519 109.1524 200° South  Level Estimated
Mon 12:58:00 AM 35.6535 109.1083 200° South  Level Estimated
Mon 12:59:00 AM 35.5551 109.0644 200° South  Level Estimated
Mon 01:00:00 AM 35.4567 109.0205 200° South  Level Estimated
Mon 01:01:00 AM 35.3582 108.9768 200° South  Level Estimated
Mon 01:02:00 AM 35.2597 108.9332 200° South  Level Estimated
Mon 01:03:00 AM 35.1612 108.8896 200° South  Level Estimated
Mon 01:04:00 AM 35.0627 108.8462 200° South  Level Estimated
Mon 01:05:00 AM 34.9642 108.8029 200° South  Level Estimated
Mon 01:06:00 AM 34.8657 108.7597 200° South  Level Estimated
Mon 01:07:00 AM 34.7671 108.7166 200° South  Level Estimated
Mon 01:08:00 AM 34.6685 108.6736 200° South  Level Estimated
Mon 01:09:00 AM 34.5700 108.6307 200° South  Level Estimated
Mon 01:10:00 AM 34.4714 108.5879 200° South  Level Estimated
Mon 01:11:00 AM 34.3727 108.5452 200° South  Level Estimated
Mon 01:12:00 AM 34.2741 108.5026 200° South  Level Estimated
Mon 01:13:00 AM 34.1755 108.4601 200° South  Level Estimated
Mon 01:14:00 AM 34.0768 108.4177 200° South  Level Estimated
Mon 01:15:00 AM 33.9781 108.3754 200° South  Level Estimated
Mon 01:16:00 AM 33.8795 108.3332 200° South  Level Estimated
Mon 01:17:00 AM 33.7808 108.2911 200° South  Level Estimated
Mon 01:18:00 AM 33.6820 108.2491 199° South  Level Estimated
Mon 01:19:00 AM 33.5833 108.2072 199° South  Level Estimated
Mon 01:20:00 AM 33.4846 108.1654 199° South  Level Estimated
Mon 01:21:00 AM 33.3858 108.1237 199° South  Level Estimated
Mon 01:22:00 AM 33.2870 108.0821 199° South  Level Estimated
Mon 01:23:00 AM 33.1883 108.0406 199° South  Level Estimated
Mon 01:24:00 AM 33.0895 107.9991 199° South  Level Estimated
Mon 01:25:00 AM 32.9906 107.9578 199° South  Level Estimated
Mon 01:26:00 AM 32.8918 107.9165 199° South  Level Estimated
Mon 01:27:00 AM 32.7930 107.8754 199° South  Level Estimated
Mon 01:28:00 AM 32.6941 107.8343 199° South  Level Estimated
Mon 01:29:00 AM 32.5952 107.7933 199° South  Level Estimated
Mon 01:30:00 AM 32.4964 107.7524 199° South  Level Estimated
Mon 01:31:00 AM 32.3975 107.7116 199° South  Level Estimated
Mon 01:32:00 AM 32.2986 107.6709 199° South  Level Estimated
Mon 01:33:00 AM 32.1996 107.6303 199° South  Level Estimated
Mon 01:34:00 AM 32.1007 107.5898 199° South  Level Estimated
Mon 01:35:00 AM 32.0018 107.5493 199° South  Level Estimated
Mon 01:36:00 AM 31.9028 107.5090 199° South  Level Estimated
Mon 01:37:00 AM 31.8038 107.4687 199° South  Level Estimated
Mon 01:38:00 AM 31.7049 107.4286 199° South  Level Estimated
Mon 01:39:00 AM 31.5982 107.3854 199° South  Level Estimated
Mon 01:40:00 AM 31.4916 107.3423 199° South  Level Estimated
Mon 01:41:00 AM 31.3850 107.2993 199° South  Level Estimated
Mon 01:42:00 AM 31.2783 107.2564 199° South  Level Estimated
Mon 01:43:00 AM 31.1716 107.2137 199° South  Level Estimated
Mon 01:44:00 AM 31.0650 107.1710 199° South  Level Estimated
Mon 01:45:00 AM 30.9583 107.1284 199° South  Level Estimated
Mon 01:46:00 AM 30.8516 107.0859 199° South  Level Estimated
Mon 01:47:00 AM 30.7448 107.0435 199° South  Level Estimated
Mon 01:48:00 AM 30.6381 107.0012 199° South  Level Estimated
Mon 01:49:00 AM 30.5313 106.9589 199° South  Level Estimated
Mon 01:50:00 AM 30.4246 106.9168 199° South  Level Estimated
Mon 01:51:00 AM 30.3178 106.8748 199° South  Level Estimated
Mon 01:52:00 AM 30.2110 106.8328 199° South  Level Estimated
Mon 01:53:00 AM 30.1042 106.7910 199° South  Level Estimated
Mon 01:54:00 AM 29.9974 106.7492 199° South  Level Estimated
Mon 01:55:00 AM 29.8905 106.7076 199° South  Level Estimated
Mon 01:56:00 AM 29.7837 106.6660 199° South  Level Estimated
Mon 01:57:00 AM 29.7194 106.6410 199° South  Level Estimated
Mon 01:58:00 AM 29.7194 106.6410 60° Northeast  Level Estimated
Mon 01:59:00 AM 29.7194 106.6410 60° Northeast  Level Estimated
Mon 02:00:00 AM 29.7194 106.6410 60° Northeast  Level Estimated
Mon 02:01:00 AM 29.7194 106.6410 60° Northeast  Level Estimated
Mon 02:02:00 AM 29.7194 106.6410 60° Northeast  Level Estimated
Mon 02:03:00 AM 29.7194 106.6410 60° Northeast  Level Estimated
Mon 02:04:00 AM 29.7194 106.6410 60° Northeast  Level Estimated
Mon 02:05:00 AM 29.7194 106.6410 60° Northeast  Level Estimated
Mon 02:06:00 AM 29.7194 106.6410 60° Northeast  Level Estimated
Mon 02:07:00 AM 29.7194 106.6410 60° Northeast  Level Estimated
Mon 02:08:00 AM 29.7194 106.6410 60° Northeast  Level Estimated
Mon 02:09:00 AM 29.7194 106.6410 60° Northeast  Level Estimated
Mon 02:10:00 AM 29.7194 106.6410 60° Northeast  Level Estimated
Mon 02:11:00 AM 29.7194 106.6410 60° Northeast  Level Estimated
Mon 02:12:00 AM 29.7194 106.6410 60° Northeast  Level Estimated
Mon 02:13:00 AM 29.7194 106.6410 60° Northeast  Level Estimated
Mon 02:14:00 AM 29.7194 106.6410 60° Northeast  Level Estimated
Mon 02:15:00 AM 29.7194 106.6410 60° Northeast  Level Estimated
Mon 02:16:00 AM 29.7194 106.6410 60° Northeast  Level Estimated
Mon 02:17:00 AM 29.7194 106.6410 60° Northeast  Level Estimated
Mon 02:18:00 AM 29.7194 106.6410 60° Northeast  Level Estimated
Mon 02:19:00 AM 29.7194 106.6410 60° Northeast  Level Estimated
Mon 02:20:00 AM 29.7194 106.6410 60° Northeast  Level Estimated
Mon 02:21:00 AM 29.7194 106.6410 60° Northeast  Level Estimated
Mon 02:22:00 AM 29.7194 106.6410 60° Northeast  Level Estimated
Mon 02:23:00 AM 29.7194 106.6410 60° Northeast  Level Estimated
Mon 02:24:00 AM 29.7194 106.6410 60° Northeast  Level Estimated
Mon 02:25:00 AM 29.7194 106.6410 60° Northeast  Level Estimated
Mon 02:26:00 AM 29.7194 106.6410 60° Northeast  Level Estimated
Mon 02:27:00 AM 29.7194 106.6410 60° Northeast  Level Estimated
Mon 02:28:00 AM 29.7194 106.6410 60° Northeast  Level Estimated

Login

Don't have an account? Register now (free) for customized features, flight alerts, and more!